Terminal Aerodrome Forecast
Issued by NWS Cleveland, OH

Home | Current Version | Previous Version | Text Only | Print | Product List | Glossary Off
Versions: 1 2 3 4 5 6 7 8 9 10 11 12

173
FTUS41 KCLE 191730
TAFERI
TAF
KERI 191730Z 1918/2018 28008KT P6SM SCT050
     FM200300 VRB03KT P6SM BKN200
     FM201400 22008KT P6SM BKN040=

USA.gov is the U.S. government's official web portal to all federal, state and local government web resources and services.